sensor_id;sensor_type;location;lat;lon;timestamp;P1;durP1;ratioP1;P2;durP2;ratioP2
29538;SDS011;16482;51.046;4.498;2023-06-26T00:00:53;8.02;;;5.90;;
29538;SDS011;16482;51.046;4.498;2023-06-26T00:03:19;6.40;;;5.57;;
29538;SDS011;16482;51.046;4.498;2023-06-26T00:05:47;7.18;;;5.88;;
29538;SDS011;16482;51.046;4.498;2023-06-26T00:08:16;6.65;;;5.85;;
29538;SDS011;16482;51.046;4.498;2023-06-26T00:10:52;6.50;;;5.90;;
29538;SDS011;16482;51.046;4.498;2023-06-26T00:13:21;9.10;;;6.20;;
29538;SDS011;16482;51.046;4.498;2023-06-26T00:15:50;7.32;;;6.00;;
29538;SDS011;16482;51.046;4.498;2023-06-26T00:18:19;11.50;;;6.03;;
29538;SDS011;16482;51.046;4.498;2023-06-26T00:20:49;7.25;;;6.40;;
29538;SDS011;16482;51.046;4.498;2023-06-26T00:23:21;6.22;;;5.65;;
29538;SDS011;16482;51.046;4.498;2023-06-26T00:25:49;7.03;;;5.90;;
29538;SDS011;16482;51.046;4.498;2023-06-26T00:28:23;9.20;;;6.05;;
29538;SDS011;16482;51.046;4.498;2023-06-26T00:30:51;6.57;;;5.43;;
29538;SDS011;16482;51.046;4.498;2023-06-26T00:33:19;7.55;;;5.85;;
29538;SDS011;16482;51.046;4.498;2023-06-26T00:35:45;9.43;;;6.10;;
29538;SDS011;16482;51.046;4.498;2023-06-26T00:38:19;7.85;;;5.53;;
29538;SDS011;16482;51.046;4.498;2023-06-26T00:40:48;7.35;;;5.72;;
29538;SDS011;16482;51.046;4.498;2023-06-26T00:43:21;6.25;;;5.45;;
29538;SDS011;16482;51.046;4.498;2023-06-26T00:45:49;6.65;;;5.95;;
29538;SDS011;16482;51.046;4.498;2023-06-26T00:48:18;8.85;;;5.95;;
29538;SDS011;16482;51.046;4.498;2023-06-26T00:50:47;8.05;;;5.65;;
29538;SDS011;16482;51.046;4.498;2023-06-26T00:53:20;6.45;;;5.35;;
29538;SDS011;16482;51.046;4.498;2023-06-26T00:55:49;7.35;;;5.70;;
29538;SDS011;16482;51.046;4.498;2023-06-26T00:58:15;7.43;;;5.68;;
29538;SDS011;16482;51.046;4.498;2023-06-26T01:00:49;7.82;;;5.40;;
29538;SDS011;16482;51.046;4.498;2023-06-26T01:03:18;9.02;;;5.50;;
29538;SDS011;16482;51.046;4.498;2023-06-26T01:05:48;6.20;;;5.60;;
29538;SDS011;16482;51.046;4.498;2023-06-26T01:08:19;6.75;;;5.50;;
29538;SDS011;16482;51.046;4.498;2023-06-26T01:10:49;5.63;;;5.13;;
29538;SDS011;16482;51.046;4.498;2023-06-26T01:13:22;7.03;;;5.40;;
29538;SDS011;16482;51.046;4.498;2023-06-26T01:15:49;7.38;;;5.47;;
29538;SDS011;16482;51.046;4.498;2023-06-26T01:18:20;6.25;;;5.57;;
29538;SDS011;16482;51.046;4.498;2023-06-26T01:20:49;6.53;;;5.20;;
29538;SDS011;16482;51.046;4.498;2023-06-26T01:23:20;5.57;;;5.00;;
29538;SDS011;16482;51.046;4.498;2023-06-26T01:28:38;5.97;;;4.95;;
29538;SDS011;16482;51.046;4.498;2023-06-26T01:31:07;5.72;;;4.88;;
29538;SDS011;16482;51.046;4.498;2023-06-26T01:33:34;6.50;;;5.15;;
29538;SDS011;16482;51.046;4.498;2023-06-26T01:36:03;7.68;;;5.60;;
29538;SDS011;16482;51.046;4.498;2023-06-26T01:38:32;6.85;;;4.72;;
29538;SDS011;16482;51.046;4.498;2023-06-26T01:41:00;5.65;;;4.75;;
29538;SDS011;16482;51.046;4.498;2023-06-26T01:43:33;5.90;;;5.05;;
29538;SDS011;16482;51.046;4.498;2023-06-26T01:46:14;7.38;;;5.28;;
29538;SDS011;16482;51.046;4.498;2023-06-26T01:48:55;6.05;;;4.95;;
29538;SDS011;16482;51.046;4.498;2023-06-26T01:51:46;6.93;;;5.32;;
29538;SDS011;16482;51.046;4.498;2023-06-26T01:54:18;6.45;;;4.75;;
29538;SDS011;16482;51.046;4.498;2023-06-26T01:56:48;8.40;;;5.30;;
29538;SDS011;16482;51.046;4.498;2023-06-26T01:59:15;6.18;;;5.00;;
29538;SDS011;16482;51.046;4.498;2023-06-26T02:01:43;7.35;;;5.57;;
29538;SDS011;16482;51.046;4.498;2023-06-26T02:04:09;6.65;;;5.13;;
29538;SDS011;16482;51.046;4.498;2023-06-26T02:06:37;6.35;;;4.47;;
29538;SDS011;16482;51.046;4.498;2023-06-26T02:09:10;6.15;;;4.85;;
29538;SDS011;16482;51.046;4.498;2023-06-26T02:11:45;6.07;;;4.97;;
29538;SDS011;16482;51.046;4.498;2023-06-26T02:14:21;6.88;;;4.97;;
29538;SDS011;16482;51.046;4.498;2023-06-26T02:16:47;7.97;;;5.10;;
29538;SDS011;16482;51.046;4.498;2023-06-26T02:19:16;7.43;;;4.90;;
29538;SDS011;16482;51.046;4.498;2023-06-26T02:21:49;7.03;;;4.93;;
29538;SDS011;16482;51.046;4.498;2023-06-26T02:24:15;6.30;;;4.68;;
29538;SDS011;16482;51.046;4.498;2023-06-26T02:26:41;5.50;;;4.57;;
29538;SDS011;16482;51.046;4.498;2023-06-26T02:29:11;8.27;;;5.32;;
29538;SDS011;16482;51.046;4.498;2023-06-26T02:31:40;6.45;;;4.35;;
29538;SDS011;16482;51.046;4.498;2023-06-26T02:34:06;6.63;;;4.50;;
29538;SDS011;16482;51.046;4.498;2023-06-26T02:36:43;7.65;;;4.82;;
29538;SDS011;16482;51.046;4.498;2023-06-26T02:39:09;5.38;;;4.57;;
29538;SDS011;16482;51.046;4.498;2023-06-26T02:41:39;6.60;;;4.40;;
29538;SDS011;16482;51.046;4.498;2023-06-26T02:44:08;6.75;;;5.00;;
29538;SDS011;16482;51.046;4.498;2023-06-26T02:46:36;5.97;;;4.70;;
29538;SDS011;16482;51.046;4.498;2023-06-26T02:49:08;5.53;;;4.35;;
29538;SDS011;16482;51.046;4.498;2023-06-26T02:51:38;7.45;;;4.53;;
29538;SDS011;16482;51.046;4.498;2023-06-26T02:54:10;6.38;;;4.55;;
29538;SDS011;16482;51.046;4.498;2023-06-26T02:56:43;6.45;;;4.80;;
29538;SDS011;16482;51.046;4.498;2023-06-26T02:59:10;7.15;;;4.75;;
29538;SDS011;16482;51.046;4.498;2023-06-26T03:01:38;7.20;;;4.53;;
29538;SDS011;16482;51.046;4.498;2023-06-26T03:04:12;8.40;;;4.80;;
29538;SDS011;16482;51.046;4.498;2023-06-26T03:06:38;7.65;;;4.20;;
29538;SDS011;16482;51.046;4.498;2023-06-26T03:09:13;7.38;;;4.40;;
29538;SDS011;16482;51.046;4.498;2023-06-26T03:11:41;8.63;;;4.78;;
29538;SDS011;16482;51.046;4.498;2023-06-26T03:14:09;8.13;;;4.50;;
29538;SDS011;16482;51.046;4.498;2023-06-26T03:16:40;6.63;;;4.43;;
29538;SDS011;16482;51.046;4.498;2023-06-26T03:19:09;7.53;;;4.40;;
29538;SDS011;16482;51.046;4.498;2023-06-26T03:21:38;8.35;;;5.00;;
29538;SDS011;16482;51.046;4.498;2023-06-26T03:24:12;9.77;;;4.35;;
29538;SDS011;16482;51.046;4.498;2023-06-26T03:26:40;7.78;;;4.80;;
29538;SDS011;16482;51.046;4.498;2023-06-26T03:29:14;8.43;;;4.40;;
29538;SDS011;16482;51.046;4.498;2023-06-26T03:31:40;9.25;;;4.03;;
29538;SDS011;16482;51.046;4.498;2023-06-26T03:34:09;11.65;;;4.90;;
29538;SDS011;16482;51.046;4.498;2023-06-26T03:36:45;7.93;;;4.43;;
29538;SDS011;16482;51.046;4.498;2023-06-26T03:39:11;8.40;;;4.72;;
29538;SDS011;16482;51.046;4.498;2023-06-26T03:41:39;7.90;;;4.80;;
29538;SDS011;16482;51.046;4.498;2023-06-26T03:44:13;8.88;;;4.55;;
29538;SDS011;16482;51.046;4.498;2023-06-26T03:46:42;8.77;;;4.80;;
29538;SDS011;16482;51.046;4.498;2023-06-26T03:49:08;10.70;;;4.70;;
29538;SDS011;16482;51.046;4.498;2023-06-26T03:51:43;9.00;;;5.00;;
29538;SDS011;16482;51.046;4.498;2023-06-26T03:54:09;10.43;;;4.72;;
29538;SDS011;16482;51.046;4.498;2023-06-26T03:56:43;7.95;;;4.70;;
29538;SDS011;16482;51.046;4.498;2023-06-26T03:59:12;8.43;;;4.65;;
29538;SDS011;16482;51.046;4.498;2023-06-26T04:01:48;8.70;;;4.43;;
29538;SDS011;16482;51.046;4.498;2023-06-26T04:04:14;9.95;;;4.97;;
29538;SDS011;16482;51.046;4.498;2023-06-26T04:06:42;9.75;;;4.57;;
29538;SDS011;16482;51.046;4.498;2023-06-26T04:09:08;9.40;;;4.53;;
29538;SDS011;16482;51.046;4.498;2023-06-26T04:11:42;8.25;;;5.00;;
29538;SDS011;16482;51.046;4.498;2023-06-26T04:14:15;8.82;;;4.65;;
29538;SDS011;16482;51.046;4.498;2023-06-26T04:16:44;9.88;;;4.70;;
29538;SDS011;16482;51.046;4.498;2023-06-26T04:19:18;10.45;;;4.68;;
29538;SDS011;16482;51.046;4.498;2023-06-26T04:21:47;9.73;;;4.72;;
29538;SDS011;16482;51.046;4.498;2023-06-26T04:24:13;10.32;;;5.07;;
29538;SDS011;16482;51.046;4.498;2023-06-26T04:26:39;10.88;;;4.80;;
29538;SDS011;16482;51.046;4.498;2023-06-26T04:29:09;9.73;;;4.75;;
29538;SDS011;16482;51.046;4.498;2023-06-26T04:31:42;11.75;;;5.28;;
29538;SDS011;16482;51.046;4.498;2023-06-26T04:34:11;10.50;;;4.95;;
29538;SDS011;16482;51.046;4.498;2023-06-26T04:36:38;10.52;;;5.07;;
29538;SDS011;16482;51.046;4.498;2023-06-26T04:39:14;10.15;;;4.80;;
29538;SDS011;16482;51.046;4.498;2023-06-26T04:41:40;11.05;;;4.55;;
29538;SDS011;16482;51.046;4.498;2023-06-26T04:44:11;9.38;;;4.82;;
29538;SDS011;16482;51.046;4.498;2023-06-26T04:46:39;9.98;;;4.82;;
29538;SDS011;16482;51.046;4.498;2023-06-26T04:49:08;9.65;;;5.10;;
29538;SDS011;16482;51.046;4.498;2023-06-26T04:51:42;11.05;;;4.95;;
29538;SDS011;16482;51.046;4.498;2023-06-26T04:54:15;6.85;;;4.20;;
29538;SDS011;16482;51.046;4.498;2023-06-26T04:56:41;8.45;;;4.30;;
29538;SDS011;16482;51.046;4.498;2023-06-26T04:59:08;9.20;;;4.85;;
29538;SDS011;16482;51.046;4.498;2023-06-26T05:01:40;9.95;;;4.85;;
29538;SDS011;16482;51.046;4.498;2023-06-26T05:04:09;9.80;;;4.43;;
29538;SDS011;16482;51.046;4.498;2023-06-26T05:06:37;10.63;;;4.60;;
29538;SDS011;16482;51.046;4.498;2023-06-26T05:09:13;9.10;;;4.28;;
29538;SDS011;16482;51.046;4.498;2023-06-26T05:11:39;9.38;;;5.00;;
29538;SDS011;16482;51.046;4.498;2023-06-26T05:14:10;8.90;;;4.57;;
29538;SDS011;16482;51.046;4.498;2023-06-26T05:16:46;8.90;;;4.53;;
29538;SDS011;16482;51.046;4.498;2023-06-26T05:19:12;11.85;;;4.90;;
29538;SDS011;16482;51.046;4.498;2023-06-26T05:21:38;8.63;;;4.68;;
29538;SDS011;16482;51.046;4.498;2023-06-26T05:24:14;9.40;;;4.18;;
29538;SDS011;16482;51.046;4.498;2023-06-26T05:26:50;10.02;;;4.22;;
29538;SDS011;16482;51.046;4.498;2023-06-26T05:29:18;10.98;;;5.00;;
29538;SDS011;16482;51.046;4.498;2023-06-26T05:31:45;10.80;;;4.57;;
29538;SDS011;16482;51.046;4.498;2023-06-26T05:34:23;10.20;;;4.88;;
29538;SDS011;16482;51.046;4.498;2023-06-26T05:36:53;8.43;;;4.20;;
29538;SDS011;16482;51.046;4.498;2023-06-26T05:39:23;14.07;;;5.07;;
29538;SDS011;16482;51.046;4.498;2023-06-26T05:41:52;10.55;;;4.10;;
29538;SDS011;16482;51.046;4.498;2023-06-26T05:44:21;8.57;;;3.95;;
29538;SDS011;16482;51.046;4.498;2023-06-26T05:46:50;8.63;;;4.40;;
29538;SDS011;16482;51.046;4.498;2023-06-26T05:49:16;11.50;;;4.40;;
29538;SDS011;16482;51.046;4.498;2023-06-26T05:51:42;10.75;;;4.15;;
29538;SDS011;16482;51.046;4.498;2023-06-26T05:54:08;9.43;;;4.20;;
29538;SDS011;16482;51.046;4.498;2023-06-26T05:56:39;10.20;;;4.78;;
29538;SDS011;16482;51.046;4.498;2023-06-26T05:59:08;12.18;;;4.15;;
29538;SDS011;16482;51.046;4.498;2023-06-26T06:01:38;9.35;;;4.03;;
29538;SDS011;16482;51.046;4.498;2023-06-26T06:04:13;12.02;;;4.20;;
29538;SDS011;16482;51.046;4.498;2023-06-26T06:06:39;12.25;;;4.40;;
29538;SDS011;16482;51.046;4.498;2023-06-26T06:09:12;10.55;;;4.68;;
29538;SDS011;16482;51.046;4.498;2023-06-26T06:11:38;9.15;;;3.55;;
29538;SDS011;16482;51.046;4.498;2023-06-26T06:14:12;10.82;;;3.53;;
29538;SDS011;16482;51.046;4.498;2023-06-26T06:16:41;12.48;;;3.92;;
29538;SDS011;16482;51.046;4.498;2023-06-26T06:19:17;13.23;;;3.50;;
29538;SDS011;16482;51.046;4.498;2023-06-26T06:21:43;9.45;;;3.15;;
29538;SDS011;16482;51.046;4.498;2023-06-26T06:24:20;11.80;;;3.35;;
29538;SDS011;16482;51.046;4.498;2023-06-26T06:26:49;8.60;;;3.10;;
29538;SDS011;16482;51.046;4.498;2023-06-26T06:29:15;11.02;;;3.63;;
29538;SDS011;16482;51.046;4.498;2023-06-26T06:31:43;10.85;;;3.17;;
29538;SDS011;16482;51.046;4.498;2023-06-26T06:34:09;8.98;;;2.88;;
29538;SDS011;16482;51.046;4.498;2023-06-26T06:36:41;8.25;;;3.05;;
29538;SDS011;16482;51.046;4.498;2023-06-26T06:39:16;9.10;;;2.95;;
29538;SDS011;16482;51.046;4.498;2023-06-26T06:41:42;10.70;;;2.88;;
29538;SDS011;16482;51.046;4.498;2023-06-26T06:44:11;9.75;;;2.72;;
29538;SDS011;16482;51.046;4.498;2023-06-26T06:46:37;11.75;;;2.80;;
29538;SDS011;16482;51.046;4.498;2023-06-26T06:49:11;12.60;;;2.85;;
29538;SDS011;16482;51.046;4.498;2023-06-26T06:51:40;7.10;;;2.38;;
29538;SDS011;16482;51.046;4.498;2023-06-26T06:54:06;8.70;;;2.63;;
29538;SDS011;16482;51.046;4.498;2023-06-26T06:56:40;11.80;;;2.88;;
29538;SDS011;16482;51.046;4.498;2023-06-26T06:59:13;11.60;;;3.15;;
29538;SDS011;16482;51.046;4.498;2023-06-26T07:01:42;8.43;;;2.53;;
29538;SDS011;16482;51.046;4.498;2023-06-26T07:04:08;7.50;;;2.70;;
29538;SDS011;16482;51.046;4.498;2023-06-26T07:06:37;7.35;;;2.78;;
29538;SDS011;16482;51.046;4.498;2023-06-26T07:09:10;7.32;;;2.60;;
29538;SDS011;16482;51.046;4.498;2023-06-26T07:11:44;5.80;;;2.20;;
29538;SDS011;16482;51.046;4.498;2023-06-26T07:14:12;10.90;;;3.08;;
29538;SDS011;16482;51.046;4.498;2023-06-26T07:16:41;8.65;;;2.45;;
29538;SDS011;16482;51.046;4.498;2023-06-26T07:19:10;7.68;;;2.30;;
29538;SDS011;16482;51.046;4.498;2023-06-26T07:21:43;9.52;;;2.78;;
29538;SDS011;16482;51.046;4.498;2023-06-26T07:24:12;11.70;;;2.70;;
29538;SDS011;16482;51.046;4.498;2023-06-26T07:26:41;7.05;;;2.33;;
29538;SDS011;16482;51.046;4.498;2023-06-26T07:29:10;9.80;;;2.60;;
29538;SDS011;16482;51.046;4.498;2023-06-26T07:31:39;9.43;;;2.60;;
29538;SDS011;16482;51.046;4.498;2023-06-26T07:34:07;5.35;;;2.10;;
29538;SDS011;16482;51.046;4.498;2023-06-26T07:36:38;5.55;;;2.15;;
29538;SDS011;16482;51.046;4.498;2023-06-26T07:39:07;9.10;;;2.30;;
29538;SDS011;16482;51.046;4.498;2023-06-26T07:41:43;12.95;;;2.75;;
29538;SDS011;16482;51.046;4.498;2023-06-26T07:44:09;7.03;;;2.13;;
29538;SDS011;16482;51.046;4.498;2023-06-26T07:46:42;7.40;;;2.67;;
29538;SDS011;16482;51.046;4.498;2023-06-26T07:49:09;8.85;;;2.45;;
29538;SDS011;16482;51.046;4.498;2023-06-26T07:51:39;8.32;;;2.60;;
29538;SDS011;16482;51.046;4.498;2023-06-26T07:54:07;5.63;;;2.50;;
29538;SDS011;16482;51.046;4.498;2023-06-26T07:56:52;8.38;;;2.15;;
29538;SDS011;16482;51.046;4.498;2023-06-26T07:59:19;11.90;;;2.38;;
29538;SDS011;16482;51.046;4.498;2023-06-26T08:01:47;12.10;;;2.50;;
29538;SDS011;16482;51.046;4.498;2023-06-26T08:04:15;7.80;;;2.08;;
29538;SDS011;16482;51.046;4.498;2023-06-26T08:06:41;8.48;;;2.30;;
29538;SDS011;16482;51.046;4.498;2023-06-26T08:09:10;7.93;;;2.00;;
29538;SDS011;16482;51.046;4.498;2023-06-26T08:11:45;7.93;;;2.03;;
29538;SDS011;16482;51.046;4.498;2023-06-26T08:14:11;8.65;;;2.13;;
29538;SDS011;16482;51.046;4.498;2023-06-26T08:16:40;8.57;;;1.83;;
29538;SDS011;16482;51.046;4.498;2023-06-26T08:19:10;5.95;;;2.30;;
29538;SDS011;16482;51.046;4.498;2023-06-26T08:21:43;5.35;;;1.70;;
29538;SDS011;16482;51.046;4.498;2023-06-26T08:24:10;5.88;;;1.90;;
29538;SDS011;16482;51.046;4.498;2023-06-26T08:26:44;5.38;;;1.88;;
29538;SDS011;16482;51.046;4.498;2023-06-26T08:29:13;12.02;;;2.72;;
29538;SDS011;16482;51.046;4.498;2023-06-26T08:31:40;7.45;;;1.85;;
29538;SDS011;16482;51.046;4.498;2023-06-26T08:34:07;7.32;;;1.90;;
29538;SDS011;16482;51.046;4.498;2023-06-26T08:36:40;5.07;;;1.80;;
29538;SDS011;16482;51.046;4.498;2023-06-26T08:39:15;6.15;;;2.15;;
29538;SDS011;16482;51.046;4.498;2023-06-26T08:41:41;7.53;;;1.98;;
29538;SDS011;16482;51.046;4.498;2023-06-26T08:44:10;3.83;;;1.38;;
29538;SDS011;16482;51.046;4.498;2023-06-26T08:46:38;7.38;;;1.67;;
29538;SDS011;16482;51.046;4.498;2023-06-26T08:49:28;8.02;;;1.75;;
29538;SDS011;16482;51.046;4.498;2023-06-26T08:51:57;5.13;;;1.63;;
29538;SDS011;16482;51.046;4.498;2023-06-26T08:54:43;6.72;;;1.40;;
29538;SDS011;16482;51.046;4.498;2023-06-26T08:57:13;3.40;;;1.45;;
29538;SDS011;16482;51.046;4.498;2023-06-26T08:59:43;5.22;;;1.52;;
29538;SDS011;16482;51.046;4.498;2023-06-26T09:02:10;8.18;;;1.55;;
29538;SDS011;16482;51.046;4.498;2023-06-26T09:04:36;5.90;;;1.70;;
29538;SDS011;16482;51.046;4.498;2023-06-26T09:07:05;6.22;;;1.63;;
29538;SDS011;16482;51.046;4.498;2023-06-26T09:09:31;7.55;;;1.77;;
29538;SDS011;16482;51.046;4.498;2023-06-26T09:11:57;3.53;;;1.65;;
29538;SDS011;16482;51.046;4.498;2023-06-26T09:14:23;8.88;;;1.92;;
29538;SDS011;16482;51.046;4.498;2023-06-26T09:16:49;9.30;;;1.98;;
29538;SDS011;16482;51.046;4.498;2023-06-26T09:19:15;6.70;;;1.83;;
29538;SDS011;16482;51.046;4.498;2023-06-26T09:21:44;6.10;;;2.00;;
29538;SDS011;16482;51.046;4.498;2023-06-26T09:24:10;7.30;;;1.98;;
29538;SDS011;16482;51.046;4.498;2023-06-26T09:26:39;3.83;;;1.73;;
29538;SDS011;16482;51.046;4.498;2023-06-26T09:29:08;4.60;;;1.95;;
29538;SDS011;16482;51.046;4.498;2023-06-26T09:31:46;7.75;;;1.88;;
29538;SDS011;16482;51.046;4.498;2023-06-26T09:34:16;5.18;;;1.80;;
29538;SDS011;16482;51.046;4.498;2023-06-26T09:36:44;7.45;;;1.98;;
29538;SDS011;16482;51.046;4.498;2023-06-26T09:39:12;4.22;;;1.90;;
29538;SDS011;16482;51.046;4.498;2023-06-26T09:41:43;3.72;;;1.75;;
29538;SDS011;16482;51.046;4.498;2023-06-26T09:44:13;6.93;;;1.80;;
29538;SDS011;16482;51.046;4.498;2023-06-26T09:46:44;5.03;;;2.00;;
29538;SDS011;16482;51.046;4.498;2023-06-26T09:49:12;3.80;;;1.73;;
29538;SDS011;16482;51.046;4.498;2023-06-26T09:51:40;5.13;;;1.75;;
29538;SDS011;16482;51.046;4.498;2023-06-26T09:54:10;5.05;;;1.80;;
29538;SDS011;16482;51.046;4.498;2023-06-26T09:56:39;3.70;;;1.55;;
29538;SDS011;16482;51.046;4.498;2023-06-26T09:59:12;4.15;;;1.70;;
29538;SDS011;16482;51.046;4.498;2023-06-26T10:01:44;5.47;;;1.55;;
29538;SDS011;16482;51.046;4.498;2023-06-26T10:04:11;3.97;;;1.70;;
29538;SDS011;16482;51.046;4.498;2023-06-26T10:06:46;6.03;;;1.90;;
29538;SDS011;16482;51.046;4.498;2023-06-26T10:09:18;3.50;;;1.48;;
29538;SDS011;16482;51.046;4.498;2023-06-26T10:14:21;4.15;;;1.58;;
29538;SDS011;16482;51.046;4.498;2023-06-26T10:16:55;4.95;;;2.00;;
29538;SDS011;16482;51.046;4.498;2023-06-26T10:21:55;5.55;;;2.17;;
29538;SDS011;16482;51.046;4.498;2023-06-26T10:24:26;3.85;;;1.75;;
29538;SDS011;16482;51.046;4.498;2023-06-26T10:29:50;7.60;;;1.75;;
29538;SDS011;16482;51.046;4.498;2023-06-26T10:32:36;4.90;;;1.67;;
29538;SDS011;16482;51.046;4.498;2023-06-26T10:35:02;4.72;;;2.05;;
29538;SDS011;16482;51.046;4.498;2023-06-26T10:37:49;5.07;;;1.73;;
29538;SDS011;16482;51.046;4.498;2023-06-26T10:40:25;7.20;;;1.67;;
29538;SDS011;16482;51.046;4.498;2023-06-26T10:43:05;7.75;;;1.90;;
29538;SDS011;16482;51.046;4.498;2023-06-26T10:45:38;5.85;;;1.48;;
29538;SDS011;16482;51.046;4.498;2023-06-26T10:48:28;4.35;;;1.60;;
29538;SDS011;16482;51.046;4.498;2023-06-26T10:50:54;4.70;;;1.50;;
29538;SDS011;16482;51.046;4.498;2023-06-26T10:53:24;3.97;;;1.80;;
29538;SDS011;16482;51.046;4.498;2023-06-26T11:03:41;2.70;;;1.60;;
29538;SDS011;16482;51.046;4.498;2023-06-26T11:06:12;4.70;;;1.83;;
29538;SDS011;16482;51.046;4.498;2023-06-26T11:08:49;6.40;;;1.73;;
29538;SDS011;16482;51.046;4.498;2023-06-26T11:11:20;4.20;;;1.90;;
29538;SDS011;16482;51.046;4.498;2023-06-26T11:13:47;5.38;;;1.50;;
29538;SDS011;16482;51.046;4.498;2023-06-26T11:16:14;3.88;;;1.50;;
29538;SDS011;16482;51.046;4.498;2023-06-26T11:18:40;4.68;;;1.65;;
29538;SDS011;16482;51.046;4.498;2023-06-26T11:21:07;4.95;;;1.50;;
29538;SDS011;16482;51.046;4.498;2023-06-26T11:23:37;3.38;;;1.52;;
29538;SDS011;16482;51.046;4.498;2023-06-26T11:26:17;3.90;;;1.60;;
29538;SDS011;16482;51.046;4.498;2023-06-26T11:28:54;3.75;;;1.77;;
29538;SDS011;16482;51.046;4.498;2023-06-26T11:31:25;5.05;;;1.83;;
29538;SDS011;16482;51.046;4.498;2023-06-26T11:34:13;4.43;;;1.60;;
29538;SDS011;16482;51.046;4.498;2023-06-26T11:36:42;4.70;;;1.70;;
29538;SDS011;16482;51.046;4.498;2023-06-26T11:39:13;5.82;;;1.80;;
29538;SDS011;16482;51.046;4.498;2023-06-26T11:41:42;5.55;;;1.67;;
29538;SDS011;16482;51.046;4.498;2023-06-26T11:44:13;3.60;;;1.50;;
29538;SDS011;16482;51.046;4.498;2023-06-26T11:46:45;3.40;;;1.77;;
29538;SDS011;16482;51.046;4.498;2023-06-26T11:49:14;3.92;;;1.73;;
29538;SDS011;16482;51.046;4.498;2023-06-26T11:51:51;4.55;;;1.60;;
29538;SDS011;16482;51.046;4.498;2023-06-26T11:54:26;4.60;;;1.60;;
29538;SDS011;16482;51.046;4.498;2023-06-26T11:56:53;4.97;;;1.88;;
29538;SDS011;16482;51.046;4.498;2023-06-26T11:59:21;3.08;;;1.80;;
29538;SDS011;16482;51.046;4.498;2023-06-26T12:01:49;3.35;;;1.48;;
29538;SDS011;16482;51.046;4.498;2023-06-26T12:04:17;5.15;;;1.80;;
29538;SDS011;16482;51.046;4.498;2023-06-26T12:06:48;4.82;;;1.67;;
29538;SDS011;16482;51.046;4.498;2023-06-26T12:09:22;3.65;;;2.10;;
29538;SDS011;16482;51.046;4.498;2023-06-26T12:11:50;6.72;;;1.92;;
29538;SDS011;16482;51.046;4.498;2023-06-26T12:14:22;3.53;;;1.50;;
29538;SDS011;16482;51.046;4.498;2023-06-26T12:16:52;3.55;;;1.42;;
29538;SDS011;16482;51.046;4.498;2023-06-26T12:19:23;5.65;;;1.73;;
29538;SDS011;16482;51.046;4.498;2023-06-26T12:21:53;5.63;;;1.50;;
29538;SDS011;16482;51.046;4.498;2023-06-26T12:24:22;4.40;;;1.90;;
29538;SDS011;16482;51.046;4.498;2023-06-26T12:26:49;4.70;;;1.70;;
29538;SDS011;16482;51.046;4.498;2023-06-26T12:29:19;7.40;;;1.88;;
29538;SDS011;16482;51.046;4.498;2023-06-26T12:31:53;3.42;;;1.58;;
29538;SDS011;16482;51.046;4.498;2023-06-26T12:34:30;4.97;;;2.00;;
29538;SDS011;16482;51.046;4.498;2023-06-26T12:37:02;2.95;;;1.63;;
29538;SDS011;16482;51.046;4.498;2023-06-26T12:39:47;5.35;;;1.50;;
29538;SDS011;16482;51.046;4.498;2023-06-26T12:42:40;3.25;;;1.60;;
29538;SDS011;16482;51.046;4.498;2023-06-26T12:45:15;5.07;;;1.75;;
29538;SDS011;16482;51.046;4.498;2023-06-26T12:47:41;2.40;;;1.52;;
29538;SDS011;16482;51.046;4.498;2023-06-26T12:50:07;4.43;;;1.77;;
29538;SDS011;16482;51.046;4.498;2023-06-26T12:52:33;4.53;;;1.65;;
29538;SDS011;16482;51.046;4.498;2023-06-26T12:55:01;3.88;;;1.85;;
29538;SDS011;16482;51.046;4.498;2023-06-26T12:57:35;5.10;;;1.52;;
29538;SDS011;16482;51.046;4.498;2023-06-26T13:00:01;3.47;;;1.60;;
29538;SDS011;16482;51.046;4.498;2023-06-26T13:02:30;2.80;;;1.05;;
29538;SDS011;16482;51.046;4.498;2023-06-26T13:05:05;4.20;;;1.42;;
29538;SDS011;16482;51.046;4.498;2023-06-26T13:07:33;12.05;;;1.60;;
29538;SDS011;16482;51.046;4.498;2023-06-26T13:10:02;5.90;;;1.77;;
29538;SDS011;16482;51.046;4.498;2023-06-26T13:12:31;3.03;;;1.60;;
29538;SDS011;16482;51.046;4.498;2023-06-26T13:14:59;4.60;;;1.90;;
29538;SDS011;16482;51.046;4.498;2023-06-26T13:17:34;2.92;;;1.30;;
29538;SDS011;16482;51.046;4.498;2023-06-26T13:20:02;3.45;;;1.60;;
29538;SDS011;16482;51.046;4.498;2023-06-26T13:22:32;4.32;;;1.35;;
29538;SDS011;16482;51.046;4.498;2023-06-26T13:25:00;3.75;;;1.55;;
29538;SDS011;16482;51.046;4.498;2023-06-26T13:27:34;4.88;;;1.52;;
29538;SDS011;16482;51.046;4.498;2023-06-26T13:30:02;8.80;;;1.90;;
29538;SDS011;16482;51.046;4.498;2023-06-26T13:32:31;4.82;;;1.83;;
29538;SDS011;16482;51.046;4.498;2023-06-26T13:35:02;3.88;;;1.77;;
29538;SDS011;16482;51.046;4.498;2023-06-26T13:37:35;4.53;;;1.48;;
29538;SDS011;16482;51.046;4.498;2023-06-26T13:40:04;5.03;;;1.50;;
29538;SDS011;16482;51.046;4.498;2023-06-26T13:42:32;5.25;;;1.83;;
29538;SDS011;16482;51.046;4.498;2023-06-26T13:45:05;7.00;;;1.83;;
29538;SDS011;16482;51.046;4.498;2023-06-26T13:47:34;4.95;;;1.50;;
29538;SDS011;16482;51.046;4.498;2023-06-26T13:50:03;4.93;;;1.70;;
29538;SDS011;16482;51.046;4.498;2023-06-26T13:52:35;7.82;;;1.63;;
29538;SDS011;16482;51.046;4.498;2023-06-26T13:55:04;4.65;;;1.70;;
29538;SDS011;16482;51.046;4.498;2023-06-26T13:57:33;4.03;;;1.30;;
29538;SDS011;16482;51.046;4.498;2023-06-26T14:00:06;3.55;;;1.88;;
29538;SDS011;16482;51.046;4.498;2023-06-26T14:02:34;5.03;;;1.67;;
29538;SDS011;16482;51.046;4.498;2023-06-26T14:05:02;5.07;;;1.45;;
29538;SDS011;16482;51.046;4.498;2023-06-26T14:07:30;2.65;;;1.23;;
29538;SDS011;16482;51.046;4.498;2023-06-26T14:10:04;2.58;;;1.40;;
29538;SDS011;16482;51.046;4.498;2023-06-26T14:12:33;5.40;;;1.70;;
29538;SDS011;16482;51.046;4.498;2023-06-26T14:15:02;3.95;;;1.65;;
29538;SDS011;16482;51.046;4.498;2023-06-26T14:17:36;2.47;;;1.13;;
29538;SDS011;16482;51.046;4.498;2023-06-26T14:20:05;4.18;;;1.60;;
29538;SDS011;16482;51.046;4.498;2023-06-26T14:22:35;3.30;;;1.50;;
29538;SDS011;16482;51.046;4.498;2023-06-26T14:25:04;4.35;;;1.65;;
29538;SDS011;16482;51.046;4.498;2023-06-26T14:27:34;3.85;;;1.63;;
29538;SDS011;16482;51.046;4.498;2023-06-26T14:30:02;5.57;;;1.73;;
29538;SDS011;16482;51.046;4.498;2023-06-26T14:32:29;2.88;;;1.58;;
29538;SDS011;16482;51.046;4.498;2023-06-26T14:35:05;7.57;;;1.92;;
29538;SDS011;16482;51.046;4.498;2023-06-26T14:37:35;3.00;;;1.88;;
29538;SDS011;16482;51.046;4.498;2023-06-26T14:40:09;4.00;;;1.98;;
29538;SDS011;16482;51.046;4.498;2023-06-26T14:42:35;5.75;;;1.90;;
29538;SDS011;16482;51.046;4.498;2023-06-26T14:45:04;6.78;;;2.00;;
29538;SDS011;16482;51.046;4.498;2023-06-26T14:47:30;9.35;;;1.98;;
29538;SDS011;16482;51.046;4.498;2023-06-26T14:50:01;6.47;;;2.10;;
29538;SDS011;16482;51.046;4.498;2023-06-26T14:52:35;8.15;;;1.98;;
29538;SDS011;16482;51.046;4.498;2023-06-26T14:55:01;5.82;;;2.30;;
29538;SDS011;16482;51.046;4.498;2023-06-26T14:57:34;8.00;;;2.30;;
29538;SDS011;16482;51.046;4.498;2023-06-26T15:00:01;7.47;;;2.30;;
29538;SDS011;16482;51.046;4.498;2023-06-26T15:02:30;5.72;;;1.98;;
29538;SDS011;16482;51.046;4.498;2023-06-26T15:05:04;6.35;;;2.13;;
29538;SDS011;16482;51.046;4.498;2023-06-26T15:07:32;6.90;;;2.20;;
29538;SDS011;16482;51.046;4.498;2023-06-26T15:10:06;8.52;;;1.98;;
29538;SDS011;16482;51.046;4.498;2023-06-26T15:12:34;4.72;;;1.98;;
29538;SDS011;16482;51.046;4.498;2023-06-26T15:15:03;5.38;;;2.00;;
29538;SDS011;16482;51.046;4.498;2023-06-26T15:17:32;5.13;;;1.90;;
29538;SDS011;16482;51.046;4.498;2023-06-26T15:20:06;5.38;;;2.10;;
29538;SDS011;16482;51.046;4.498;2023-06-26T15:22:32;5.10;;;2.13;;